createdAt,value
2018-01-14T00:01:58.982Z,17.16
2018-01-14T00:04:27.270Z,16.94
2018-01-14T00:06:55.558Z,17.36
2018-01-14T00:09:23.838Z,17.10
2018-01-14T00:11:52.110Z,16.88
2018-01-14T00:14:20.390Z,17.30
2018-01-14T00:16:48.646Z,17.90
2018-01-14T00:19:16.913Z,17.58
2018-01-14T00:21:45.206Z,20.26
2018-01-14T00:24:13.459Z,16.94
2018-01-14T00:26:41.742Z,17.80
2018-01-14T00:29:10.003Z,16.28
2018-01-14T00:31:38.266Z,17.54
2018-01-14T00:34:06.559Z,17.56
2018-01-14T00:36:34.818Z,16.96
2018-01-14T00:39:03.098Z,18.62
2018-01-14T00:41:31.355Z,17.80
2018-01-14T00:44:00.138Z,18.24
2018-01-14T00:46:29.240Z,17.10
2018-01-14T00:48:58.047Z,18.08
2018-01-14T00:51:26.298Z,19.08
2018-01-14T00:54:04.694Z,16.96
2018-01-14T00:56:32.945Z,18.36
2018-01-14T00:59:01.199Z,18.78
2018-01-14T01:01:30.509Z,19.34
2018-01-14T01:03:59.491Z,18.14
2018-01-14T01:06:28.154Z,17.54
2018-01-14T01:08:58.119Z,16.30
2018-01-14T01:11:26.374Z,18.06
2018-01-14T01:13:54.653Z,15.90
2018-01-14T01:16:22.914Z,16.38
2018-01-14T01:18:51.201Z,15.98
2018-01-14T01:21:19.467Z,16.32
2018-01-14T01:23:47.746Z,17.22
2018-01-14T01:26:25.887Z,16.40
2018-01-14T01:28:54.186Z,16.02
2018-01-14T01:31:22.438Z,15.16
2018-01-14T01:33:50.690Z,14.86
2018-01-14T01:36:18.982Z,16.28
2018-01-14T01:38:47.278Z,16.34
2018-01-14T01:41:15.526Z,15.84
2018-01-14T01:43:43.783Z,15.40
2018-01-14T01:46:12.068Z,14.32
2018-01-14T01:48:40.351Z,14.62
2018-01-14T01:51:08.602Z,16.20
2018-01-14T01:53:36.892Z,15.48
2018-01-14T01:56:05.151Z,14.72
2018-01-14T01:58:33.402Z,15.78
2018-01-14T02:01:01.683Z,15.60
2018-01-14T02:03:30.139Z,13.60
2018-01-14T02:05:58.974Z,14.22
2018-01-14T02:08:29.102Z,15.08
2018-01-14T02:10:58.024Z,14.16
2018-01-14T02:13:26.294Z,13.02
2018-01-14T02:15:59.659Z,14.66
2018-01-14T02:18:28.587Z,13.36
2018-01-14T02:21:03.914Z,13.46
2018-01-14T02:23:32.166Z,14.48
2018-01-14T02:26:00.426Z,14.04
2018-01-14T02:28:29.619Z,14.46
2018-01-14T02:30:58.673Z,13.44
2018-01-14T02:33:33.990Z,13.40
2018-01-14T02:36:02.274Z,13.82
2018-01-14T02:38:31.471Z,13.90
2018-01-14T02:41:00.102Z,15.06
2018-01-14T02:43:28.938Z,13.58
2018-01-14T02:45:57.222Z,13.92
2018-01-14T02:48:25.481Z,13.16
2018-01-14T02:50:53.776Z,15.82
2018-01-14T02:53:22.026Z,15.24
2018-01-14T02:55:50.314Z,16.04
2018-01-14T02:58:19.499Z,14.76
2018-01-14T03:00:47.798Z,15.34
2018-01-14T03:03:32.573Z,13.62
2018-01-14T03:06:00.842Z,15.20
2018-01-14T03:08:29.877Z,14.32
2018-01-14T03:10:58.789Z,14.14
2018-01-14T03:13:27.045Z,14.62
2018-01-14T03:15:55.330Z,14.54
2018-01-14T03:18:23.611Z,15.82
2018-01-14T03:20:51.906Z,15.80
2018-01-14T03:23:32.997Z,16.32
2018-01-14T03:26:01.282Z,15.30
2018-01-14T03:28:30.114Z,16.74
2018-01-14T03:30:59.086Z,15.24
2018-01-14T03:33:28.178Z,16.04
2018-01-14T03:35:56.437Z,17.32
2018-01-14T03:38:24.729Z,16.88
2018-01-14T03:40:52.986Z,17.76
2018-01-14T03:43:21.274Z,18.00
2018-01-14T03:45:48.769Z,13.72
2018-01-14T03:48:17.061Z,16.40
2018-01-14T03:50:45.324Z,15.82
2018-01-14T03:53:13.609Z,14.54
2018-01-14T03:55:41.902Z,16.46
2018-01-14T03:58:11.102Z,15.02
2018-01-14T04:00:39.386Z,15.88
2018-01-14T04:03:07.633Z,14.84
2018-01-14T04:05:39.577Z,15.48
2018-01-14T04:08:07.824Z,15.52
2018-01-14T04:10:36.122Z,15.82
2018-01-14T04:13:04.378Z,13.28
2018-01-14T04:15:39.562Z,14.48
2018-01-14T04:18:07.815Z,16.58
2018-01-14T04:20:36.074Z,15.70
2018-01-14T04:23:04.375Z,15.20
2018-01-14T04:25:32.637Z,15.22
2018-01-14T04:28:00.895Z,14.16
2018-01-14T04:30:29.937Z,17.22
2018-01-14T04:32:59.113Z,14.88
2018-01-14T04:35:29.078Z,15.12
2018-01-14T04:37:58.583Z,16.06
2018-01-14T04:40:26.878Z,14.74
2018-01-14T04:42:55.137Z,14.10
2018-01-14T04:45:23.425Z,16.06
2018-01-14T04:47:51.689Z,16.42
2018-01-14T04:50:19.957Z,14.78
2018-01-14T04:52:50.149Z,16.92
2018-01-14T04:55:18.419Z,14.92
2018-01-14T04:57:46.719Z,12.94
2018-01-14T05:00:14.979Z,13.08
2018-01-14T05:02:43.246Z,11.84
2018-01-14T05:05:11.526Z,13.48
2018-01-14T05:07:39.809Z,14.06
2018-01-14T05:10:09.078Z,16.00
2018-01-14T05:12:37.362Z,14.40
2018-01-14T05:15:05.651Z,15.18
2018-01-14T05:17:33.901Z,14.32
2018-01-14T05:20:02.193Z,15.44
2018-01-14T05:22:30.040Z,14.08
2018-01-14T05:24:59.086Z,15.06
2018-01-14T05:27:28.165Z,16.30
2018-01-14T05:29:56.454Z,16.52
2018-01-14T05:32:24.741Z,18.24
2018-01-14T05:34:53.037Z,16.26
2018-01-14T05:37:21.289Z,16.66
2018-01-14T05:39:49.586Z,18.96
2018-01-14T05:42:17.846Z,16.98
2018-01-14T05:44:47.006Z,16.60
2018-01-14T05:47:15.289Z,16.38
2018-01-14T05:49:43.558Z,18.14
2018-01-14T05:52:11.851Z,17.50
2018-01-14T05:54:44.762Z,14.96
2018-01-14T05:57:13.065Z,16.76
2018-01-14T05:59:41.358Z,17.22
2018-01-14T06:02:09.622Z,18.14
2018-01-14T06:04:44.678Z,16.34
2018-01-14T06:07:12.958Z,17.16
2018-01-14T06:09:41.269Z,17.78
2018-01-14T06:12:09.518Z,15.62
2018-01-14T06:14:37.913Z,15.92
2018-01-14T06:17:07.211Z,13.82
2018-01-14T06:19:35.473Z,13.96
2018-01-14T06:22:03.757Z,13.30
2018-01-14T06:24:35.818Z,13.72
2018-01-14T06:27:04.110Z,13.60
2018-01-14T06:29:32.376Z,13.78
2018-01-14T06:32:00.654Z,14.72
2018-01-14T06:34:29.751Z,15.62
2018-01-14T06:36:58.875Z,13.08
2018-01-14T06:39:27.157Z,14.06
2018-01-14T06:41:55.438Z,12.54
2018-01-14T06:44:23.735Z,13.74
2018-01-14T06:46:51.986Z,13.80
2018-01-14T06:49:20.273Z,13.22
2018-01-14T06:51:52.194Z,13.66
2018-01-14T06:54:20.490Z,12.84
2018-01-14T06:56:48.782Z,13.68
2018-01-14T06:59:17.086Z,13.40
2018-01-14T07:01:45.342Z,13.04
2018-01-14T07:04:13.594Z,13.12
2018-01-14T07:06:41.886Z,14.42
2018-01-14T07:09:33.183Z,13.72
2018-01-14T07:12:01.466Z,14.88
2018-01-14T07:14:30.058Z,15.34
2018-01-14T07:16:59.134Z,13.88
2018-01-14T07:19:28.117Z,14.72
2018-01-14T07:21:56.401Z,14.60
2018-01-14T07:24:24.695Z,13.58
2018-01-14T07:26:52.954Z,14.60
2018-01-14T07:29:21.240Z,14.02
2018-01-14T07:31:49.521Z,13.60
2018-01-14T07:34:17.778Z,13.86
2018-01-14T07:36:56.385Z,13.12
2018-01-14T07:39:24.678Z,14.58
2018-01-14T07:41:52.987Z,15.32
2018-01-14T07:44:21.202Z,14.12
2018-01-14T07:46:49.491Z,14.40
2018-01-14T07:49:17.754Z,15.40
2018-01-14T07:51:46.062Z,14.44
2018-01-14T07:54:14.318Z,14.22
2018-01-14T07:56:59.547Z,14.14
2018-01-14T07:59:28.779Z,14.20
2018-01-14T08:02:11.637Z,13.76
2018-01-14T08:04:39.903Z,14.54
2018-01-14T08:07:08.182Z,14.34
2018-01-14T08:09:36.474Z,14.44
2018-01-14T08:12:04.727Z,12.54
2018-01-14T08:14:33.002Z,14.20
2018-01-14T08:17:00.499Z,12.54
2018-01-14T08:19:29.770Z,14.74
2018-01-14T08:21:58.698Z,12.92
2018-01-14T08:24:34.193Z,13.60
2018-01-14T08:27:02.454Z,12.74
2018-01-14T08:29:30.747Z,14.22
2018-01-14T08:31:59.711Z,11.40
2018-01-14T08:34:28.722Z,14.20
2018-01-14T08:37:03.251Z,13.42
2018-01-14T08:39:31.550Z,12.50
2018-01-14T08:42:00.141Z,13.70
2018-01-14T08:44:29.149Z,13.12
2018-01-14T08:46:58.134Z,12.94
2018-01-14T08:49:26.386Z,14.44
2018-01-14T08:51:54.674Z,15.24
2018-01-14T08:54:22.933Z,12.32
2018-01-14T08:56:51.223Z,11.78
2018-01-14T08:59:19.480Z,12.76
2018-01-14T09:01:50.557Z,12.16
2018-01-14T09:04:18.819Z,12.34
2018-01-14T09:06:47.107Z,13.70
2018-01-14T09:09:15.400Z,12.78
2018-01-14T09:11:43.649Z,13.40
2018-01-14T09:14:31.930Z,13.24
2018-01-14T09:17:00.215Z,13.14
2018-01-14T09:19:29.486Z,14.68
2018-01-14T09:21:59.063Z,13.50
2018-01-14T09:24:28.792Z,12.34
2018-01-14T09:26:57.831Z,13.16
2018-01-14T09:29:29.298Z,13.42
2018-01-14T09:31:58.619Z,13.54
2018-01-14T09:34:29.589Z,13.42
2018-01-14T09:36:58.904Z,12.98
2018-01-14T09:39:27.924Z,14.48
2018-01-14T09:41:56.211Z,12.80
2018-01-14T09:44:24.474Z,12.22
2018-01-14T09:46:52.860Z,13.50
2018-01-14T09:49:21.138Z,11.32
2018-01-14T09:51:48.632Z,12.20
2018-01-14T09:54:16.930Z,11.12
2018-01-14T09:56:45.177Z,12.30
2018-01-14T09:59:13.445Z,12.76
2018-01-14T10:01:43.647Z,10.58
2018-01-14T10:04:11.169Z,12.76
2018-01-14T10:06:46.436Z,11.10
2018-01-14T10:09:14.741Z,12.16
2018-01-14T10:11:48.633Z,10.90
2018-01-14T10:14:16.891Z,12.36
2018-01-14T10:16:45.186Z,11.92
2018-01-14T10:19:13.446Z,12.10
2018-01-14T10:21:48.670Z,11.46
2018-01-14T10:24:16.921Z,11.98
2018-01-14T10:26:46.229Z,12.14
2018-01-14T10:29:14.482Z,12.10
2018-01-14T10:31:42.736Z,11.70
2018-01-14T10:34:11.010Z,12.64
2018-01-14T10:36:39.299Z,12.40
2018-01-14T10:39:07.586Z,17.66
2018-01-14T10:41:36.838Z,13.72
2018-01-14T10:44:05.098Z,14.92
2018-01-14T10:46:33.366Z,14.12
2018-01-14T10:49:01.622Z,12.86
2018-01-14T10:51:29.905Z,12.32
2018-01-14T10:53:58.170Z,11.90
2018-01-14T10:56:26.466Z,11.56
2018-01-14T10:58:54.727Z,12.92
2018-01-14T11:01:28.775Z,12.04
2018-01-14T11:03:57.908Z,11.86
2018-01-14T11:06:26.200Z,14.18
2018-01-14T11:08:54.459Z,12.58
2018-01-14T11:11:22.746Z,12.90
2018-01-14T11:13:51.004Z,12.08
2018-01-14T11:16:20.276Z,13.90
2018-01-14T11:18:48.561Z,13.86
2018-01-14T11:21:20.479Z,13.86
2018-01-14T11:23:48.772Z,12.74
2018-01-14T11:26:18.027Z,12.14
2018-01-14T11:28:52.009Z,11.72
2018-01-14T11:31:21.199Z,13.12
2018-01-14T11:33:49.514Z,13.52
2018-01-14T11:36:17.774Z,13.14
2018-01-14T11:38:46.030Z,12.16
2018-01-14T11:41:14.326Z,11.24
2018-01-14T11:43:42.582Z,12.54
2018-01-14T11:46:14.450Z,12.90
2018-01-14T11:48:42.714Z,13.46
2018-01-14T11:51:11.971Z,12.92
2018-01-14T11:53:40.253Z,13.64
2018-01-14T11:56:08.514Z,12.94
2018-01-14T11:58:36.818Z,12.86
2018-01-14T12:01:08.197Z,13.00
2018-01-14T12:03:36.490Z,13.12
2018-01-14T12:06:04.745Z,14.04
2018-01-14T12:08:33.027Z,14.72
2018-01-14T12:11:01.511Z,14.20
2018-01-14T12:13:29.818Z,14.54
2018-01-14T12:16:00.010Z,15.66
2018-01-14T12:18:28.298Z,16.82
2018-01-14T12:20:59.399Z,16.02
2018-01-14T12:23:28.682Z,15.66
2018-01-14T12:26:02.142Z,15.82
2018-01-14T12:28:30.398Z,15.96
2018-01-14T12:31:04.322Z,15.20
2018-01-14T12:33:45.443Z,15.10
2018-01-14T12:36:13.730Z,16.82
2018-01-14T12:38:43.018Z,16.12
2018-01-14T12:41:11.269Z,15.06
2018-01-14T12:43:40.597Z,12.50
2018-01-14T12:46:08.826Z,14.34
2018-01-14T12:48:44.022Z,14.94
2018-01-14T12:51:12.279Z,13.76
2018-01-14T12:53:41.501Z,12.68
2018-01-14T12:56:09.982Z,13.74
2018-01-14T12:58:38.280Z,12.42
2018-01-14T13:01:20.439Z,12.06
2018-01-14T13:03:48.739Z,11.04
2018-01-14T13:06:17.003Z,13.38
2018-01-14T13:08:45.257Z,13.70
2018-01-14T13:11:13.514Z,13.16
2018-01-14T13:13:41.793Z,14.00
2018-01-14T13:16:13.603Z,12.98
2018-01-14T13:18:41.909Z,12.52
2018-01-14T13:21:10.211Z,14.38
2018-01-14T13:23:38.466Z,12.78
2018-01-14T13:26:06.001Z,14.24
2018-01-14T13:28:34.266Z,13.56
2018-01-14T13:31:02.580Z,14.94
2018-01-14T13:33:32.790Z,12.80
2018-01-14T13:36:01.058Z,13.46
2018-01-14T13:38:36.512Z,13.36
2018-01-14T13:41:04.837Z,12.72
2018-01-14T13:43:33.095Z,13.82
2018-01-14T13:46:00.701Z,13.76
2018-01-14T13:48:38.784Z,14.16
2018-01-14T13:51:07.085Z,14.12
2018-01-14T13:53:52.550Z,14.42
2018-01-14T13:56:21.430Z,13.56
2018-01-14T13:58:49.690Z,14.18
2018-01-14T14:01:17.954Z,14.58
2018-01-14T14:03:47.137Z,12.94
2018-01-14T14:06:15.437Z,14.18
2018-01-14T14:08:43.769Z,12.88
2018-01-14T14:11:12.134Z,15.28
2018-01-14T14:13:40.378Z,14.50
2018-01-14T14:16:08.709Z,12.60
2018-01-14T14:18:36.972Z,12.78
2018-01-14T14:21:06.244Z,14.52
2018-01-14T14:23:34.495Z,13.16
2018-01-14T14:26:02.781Z,13.00
2018-01-14T14:28:31.036Z,14.72
2018-01-14T14:30:58.551Z,13.58
2018-01-14T14:33:26.818Z,13.50
2018-01-14T14:36:14.533Z,13.58
2018-01-14T14:38:42.790Z,13.72
2018-01-14T14:41:14.425Z,14.00
2018-01-14T14:43:42.715Z,13.46
2018-01-14T14:46:11.015Z,12.44
2018-01-14T14:48:39.246Z,14.90
2018-01-14T14:51:07.525Z,13.10
2018-01-14T14:53:35.825Z,12.26
2018-01-14T14:56:07.830Z,12.90
2018-01-14T14:58:36.159Z,13.50
2018-01-14T15:01:05.377Z,12.14
2018-01-14T15:03:33.630Z,12.16
2018-01-14T15:06:01.899Z,14.78
2018-01-14T15:08:30.145Z,13.16
2018-01-14T15:11:02.275Z,13.56
2018-01-14T15:13:30.572Z,15.52
2018-01-14T15:16:00.353Z,12.44
2018-01-14T15:18:29.026Z,12.78
2018-01-14T15:20:57.278Z,15.22
2018-01-14T15:23:25.594Z,13.06
2018-01-14T15:25:53.889Z,13.14
2018-01-14T15:28:22.131Z,13.94
2018-01-14T15:30:50.413Z,13.76
2018-01-14T15:33:18.762Z,15.26
2018-01-14T15:35:47.009Z,13.28
2018-01-14T15:38:15.294Z,12.74
2018-01-14T15:40:43.550Z,12.64
2018-01-14T15:43:11.842Z,13.80
2018-01-14T15:45:50.390Z,13.74
2018-01-14T15:48:18.716Z,14.58
2018-01-14T15:50:50.570Z,11.98
2018-01-14T15:53:18.868Z,12.62
2018-01-14T15:55:51.733Z,13.46
2018-01-14T15:58:19.986Z,14.14
2018-01-14T16:00:48.253Z,12.64
2018-01-14T16:03:16.622Z,13.76
2018-01-14T16:05:44.867Z,12.74
2018-01-14T16:08:13.177Z,12.84
2018-01-14T16:10:41.474Z,13.04
2018-01-14T16:13:09.725Z,13.40
2018-01-14T16:15:44.152Z,13.14
2018-01-14T16:18:12.445Z,12.32
2018-01-14T16:20:44.512Z,12.86
2018-01-14T16:23:12.811Z,11.68
2018-01-14T16:25:41.113Z,13.62
2018-01-14T16:28:09.437Z,13.52
2018-01-14T16:30:37.721Z,14.18
2018-01-14T16:33:06.051Z,13.50
2018-01-14T16:35:34.314Z,13.72
2018-01-14T16:38:07.367Z,12.52
2018-01-14T16:40:35.667Z,13.20
2018-01-14T16:43:03.958Z,14.90
2018-01-14T16:45:33.228Z,15.20
2018-01-14T16:48:01.572Z,17.46
2018-01-14T16:50:29.867Z,16.42
2018-01-14T16:52:58.835Z,15.86
2018-01-14T16:55:32.453Z,14.26
2018-01-14T16:58:00.720Z,16.04
2018-01-14T17:00:29.850Z,13.96
2018-01-14T17:02:59.486Z,17.38
2018-01-14T17:05:27.790Z,15.02
2018-01-14T17:07:56.050Z,15.20
2018-01-14T17:10:38.328Z,13.80
2018-01-14T17:13:06.689Z,15.78
2018-01-14T17:15:35.007Z,14.00
2018-01-14T17:18:05.187Z,14.56
2018-01-14T17:20:37.967Z,15.42
2018-01-14T17:23:06.259Z,14.70
2018-01-14T17:25:34.589Z,13.50
2018-01-14T17:28:02.915Z,13.72
2018-01-14T17:30:31.170Z,14.90
2018-01-14T17:33:07.352Z,14.90
2018-01-14T17:35:35.651Z,14.12
2018-01-14T17:38:04.139Z,13.96
2018-01-14T17:40:31.903Z,14.58
2018-01-14T17:43:00.394Z,15.04
2018-01-14T17:45:51.459Z,14.40
2018-01-14T17:48:19.727Z,15.38
2018-01-14T17:50:48.238Z,15.68
2018-01-14T17:53:16.524Z,17.94
2018-01-14T17:55:47.961Z,17.50
2018-01-14T17:58:16.294Z,15.70
2018-01-14T18:00:49.032Z,16.10
2018-01-14T18:03:17.356Z,16.00
2018-01-14T18:05:51.223Z,16.52
2018-01-14T18:08:19.553Z,14.42
2018-01-14T18:10:47.046Z,14.72
2018-01-14T18:13:15.427Z,15.22
2018-01-14T18:15:56.816Z,16.04
2018-01-14T18:18:25.144Z,14.42
2018-01-14T18:20:53.439Z,14.16
2018-01-14T18:23:21.290Z,12.74
2018-01-14T18:25:51.588Z,13.40
2018-01-14T18:28:20.121Z,15.52
2018-01-14T18:30:48.376Z,15.84
2018-01-14T18:33:16.882Z,15.32
2018-01-14T18:36:05.804Z,15.84
2018-01-14T18:38:34.066Z,15.82
2018-01-14T18:41:05.924Z,14.44
2018-01-14T18:43:34.423Z,15.76
2018-01-14T18:46:10.734Z,16.14
2018-01-14T18:48:39.036Z,14.94
2018-01-14T18:51:07.333Z,15.26
2018-01-14T18:53:35.669Z,15.32
2018-01-14T18:56:03.926Z,15.80
2018-01-14T18:58:32.225Z,15.26
2018-01-14T19:01:00.533Z,15.52
2018-01-14T19:03:29.500Z,13.68
2018-01-14T19:05:58.804Z,15.00
2018-01-14T19:08:27.145Z,15.12
2018-01-14T19:10:55.493Z,15.16
2018-01-14T19:13:23.832Z,16.06
2018-01-14T19:15:53.061Z,13.80
2018-01-14T19:18:21.374Z,17.06
2018-01-14T19:20:57.680Z,16.96
2018-01-14T19:23:26.000Z,15.88
2018-01-14T19:25:54.254Z,14.96
2018-01-14T19:28:22.543Z,15.20
2018-01-14T19:30:54.324Z,14.92
2018-01-14T19:33:22.651Z,14.66
2018-01-14T19:35:54.462Z,15.40
2018-01-14T19:38:22.787Z,15.50
2018-01-14T19:40:52.951Z,15.46
2018-01-14T19:43:21.305Z,13.52
2018-01-14T19:45:50.571Z,14.20
2018-01-14T19:48:18.913Z,15.02
2018-01-14T19:50:50.708Z,15.74
2018-01-14T19:53:19.051Z,14.94
2018-01-14T19:55:50.792Z,15.02
2018-01-14T19:58:19.208Z,14.82
2018-01-14T20:00:53.781Z,15.62
2018-01-14T20:03:22.112Z,15.22
2018-01-14T20:05:52.394Z,15.18
2018-01-14T20:08:20.701Z,15.74
2018-01-14T20:10:56.055Z,15.90
2018-01-14T20:13:24.360Z,13.68
2018-01-14T20:15:52.670Z,15.00
2018-01-14T20:18:20.949Z,14.90
2018-01-14T20:20:49.214Z,17.24
2018-01-14T20:23:17.562Z,14.92
2018-01-14T20:25:46.817Z,16.08
2018-01-14T20:28:15.074Z,17.48
2018-01-14T20:30:44.378Z,15.36
2018-01-14T20:33:12.671Z,16.10
2018-01-14T20:35:52.830Z,18.54
2018-01-14T20:38:21.137Z,15.30
2018-01-14T20:40:50.410Z,15.18
2018-01-14T20:43:18.725Z,16.24
2018-01-14T20:45:48.061Z,14.30
2018-01-14T20:48:16.321Z,15.98
2018-01-14T20:51:03.936Z,14.98
2018-01-14T20:53:31.498Z,16.18
2018-01-14T20:55:59.801Z,16.06
2018-01-14T20:58:28.841Z,16.00
2018-01-14T21:01:05.398Z,15.74
2018-01-14T21:03:33.736Z,16.72
2018-01-14T21:06:12.558Z,17.70
2018-01-14T21:08:40.876Z,15.08
2018-01-14T21:11:10.135Z,16.10
2018-01-14T21:13:38.490Z,16.18
2018-01-14T21:16:28.981Z,14.66
2018-01-14T21:18:58.340Z,16.78
2018-01-14T21:21:30.872Z,14.92
2018-01-14T21:24:00.076Z,14.70
2018-01-14T21:26:31.976Z,17.20
2018-01-14T21:29:00.282Z,15.98
2018-01-14T21:31:28.970Z,16.44
2018-01-14T21:33:58.502Z,15.30
2018-01-14T21:36:34.891Z,16.02
2018-01-14T21:39:03.157Z,15.80
2018-01-14T21:41:33.502Z,17.28
2018-01-14T21:44:01.842Z,15.80
2018-01-14T21:46:30.164Z,17.48
2018-01-14T21:48:58.461Z,16.92
2018-01-14T21:51:29.873Z,16.50
2018-01-14T21:53:59.431Z,19.04
2018-01-14T21:56:42.314Z,17.30
2018-01-14T21:59:10.743Z,15.72
2018-01-14T22:04:36.300Z,16.68
2018-01-14T22:07:04.602Z,15.44
2018-01-14T22:09:41.404Z,16.50
2018-01-14T22:12:09.778Z,15.96
2018-01-14T22:14:39.997Z,16.06
2018-01-14T22:17:08.332Z,17.06
2018-01-14T22:19:43.494Z,16.30
2018-01-14T22:22:11.829Z,18.30
2018-01-14T22:24:40.162Z,18.46
2018-01-14T22:27:08.455Z,16.94
2018-01-14T22:29:44.866Z,16.06
2018-01-14T22:32:13.201Z,17.84
2018-01-14T22:34:41.505Z,17.40
2018-01-14T22:37:12.874Z,15.54
2018-01-14T22:39:41.168Z,15.70
2018-01-14T22:42:19.538Z,14.94
2018-01-14T22:44:47.842Z,16.48
2018-01-14T22:47:15.394Z,16.22
2018-01-14T22:49:43.724Z,16.66
2018-01-14T22:52:12.021Z,14.84
2018-01-14T22:54:50.306Z,17.64
2018-01-14T22:57:18.554Z,15.22
2018-01-14T22:59:47.829Z,16.46
2018-01-14T23:02:16.120Z,18.06
2018-01-14T23:04:52.467Z,18.18
2018-01-14T23:07:20.731Z,15.16
2018-01-14T23:09:49.056Z,16.50
2018-01-14T23:12:17.310Z,15.82
2018-01-14T23:15:01.429Z,15.30
2018-01-14T23:17:29.678Z,16.58
2018-01-14T23:20:07.803Z,17.36
2018-01-14T23:22:36.057Z,15.84
2018-01-14T23:25:05.221Z,15.44
2018-01-14T23:27:33.511Z,16.34
2018-01-14T23:30:04.248Z,16.74
2018-01-14T23:32:32.499Z,15.42
2018-01-14T23:35:02.707Z,15.60
2018-01-14T23:37:30.971Z,18.50
2018-01-14T23:40:00.490Z,17.16
2018-01-14T23:42:30.218Z,16.04
2018-01-14T23:44:58.873Z,16.58
2018-01-14T23:47:27.166Z,15.28
2018-01-14T23:50:00.030Z,16.84
2018-01-14T23:52:28.192Z,16.56
2018-01-14T23:54:56.470Z,14.80
2018-01-14T23:57:24.734Z,16.36
2018-01-14T23:59:53.018Z,15.82
